ADDS METAR Data INFO
IDs: Format: Raw Decoded Include TAF

Data at: 2054 UTC 24 Jun 2017

KMKN 242035Z AUTO 01006KT 10SM 26/22 A3012 RMK AO2 T02570216
KMKN 242010Z AUTO 34010KT 10SM SCT014 26/23 A3012 RMK AO2 T02600226
KMKN 241955Z AUTO 36010KT 10SM CLR 25/22 A3012 RMK AO2 T02460220
KMKN 241935Z AUTO 34007KT 10SM CLR 24/22 A3012 RMK AO2 T02390218
KMKN 241915Z AUTO 34004KT 10SM CLR 22/22 A3012 RMK AO2 T02150215
KMKN 241855Z AUTO 14005KT 10SM CLR 21/21 A3011 RMK AO2 T02120212
KMKN 241835Z AUTO 14004KT 10SM CLR 21/21 A3012 RMK AO2 T02100210
KMKN 241815Z AUTO 14003KT 10SM CLR 21/21 A3016 RMK AO2 T02060206
KMKN 241755Z AUTO 13006KT 10SM -DZ SCT012 SCT037 BKN050 20/20 A3016 RMK AO2 60159 T02010201 10201 20186
KMKN 241735Z AUTO 10006KT 10SM RA BKN012 BKN046 OVC095 20/20 A3018 RMK AO2 T01960196
KMKN 241715Z AUTO 03004KT 10SM -RA SCT010 SCT070 OVC100 20/20 A3019 RMK AO2 T01950195
KMKN 241655Z AUTO 15016G21KT 10SM -RA SCT075 OVC100 20/20 A3016 RMK AO2 P0002 T01950195
KMKN 241635Z AUTO 15008KT 7SM RA OVC100 20/20 A3023 RMK AO2 P0002 T01950195
KMKN 241615Z AUTO 00000KT 5SM RA SCT010 BKN019 OVC090 19/19 A3027 RMK AO2 LTG DSNT SE P0002 T01940194
KMKN 241555Z AUTO 26003KT 5SM RA OVC008 19/19 A3024 RMK AO2 LTG DSNT SW P0013 T01930193
KMKN 241535Z AUTO 27003KT 3SM +VCTSRA OVC010 19/19 A3024 RMK AO2 LTG DSNT N AND S P0008 T01930193
KMKN 241515Z AUTO 00000KT 3SM +RA BKN010 BKN014 OVC035 19/19 A3021 RMK AO2 P0002 T01910191
KMKN 241455Z AUTO 08006KT 5SM TSRA BKN010 BKN024 OVC043 19/19 A3021 RMK AO2 LTG DSNT SW THRU N P0007 60143 T01910191
KMKN 241435Z AUTO 07007G14KT 5SM TSRA BKN008 OVC026 19/19 A3022 RMK AO2 LTG DSNT ALQS P0005 T01920192
KMKN 241415Z AUTO 08011G17KT 10SM -VCTSRA BKN008 BKN026 OVC037 19/19 A3022 RMK AO2 LTG DSNT ALQS P0001 T01930193
KMKN 241355Z AUTO 06013G19KT 10SM -TSRA BKN008 OVC024 19/19 A3019 RMK AO2 LTG DSNT ALQS P0088 T01910191
KMKN 241335Z AUTO 05017G28KT 3/4SM +TSRA OVC006 19/19 A3018 RMK AO2 LTG DSNT ALQS P0086 T01900190
KMKN 241315Z AUTO 06028G39KT 1/4SM +TSRA OVC006 19/19 A3014 RMK AO2 LTG DSNT ALQS P0060 T01860186
KMKN 241255Z AUTO 02035G43KT 1/4SM +TSRA 19/19 A3017 RMK AO2 LTG DSNT ALQS P0044 T01900190
KMKN 241235Z AUTO 01026G38KT 1 1/2SM +TSRA BKN009 OVC014 22/22 A3014 RMK AO2 LTG DSNT ALQS P0019 T02180218
KMKN 241215Z AUTO 13015G22KT 10SM -VCTSRA OVC009 23/23 A3004 RMK AO2 LTG DSNT ALQS T02250225
KMKN 241155Z AUTO 12012G17KT 10SM -VCTSRA BKN009 OVC041 23/23 A3003 RMK AO2 LTG DSNT ALQS T02300225 10275 20227
KMKN 241135Z AUTO 13009KT 10SM VCTS SCT009 SCT036 OVC043 23/22 A3002 RMK AO2 LTG DSNT ALQS T02270216
KMKN 241115Z AUTO 12012G20KT 10SM SCT009 BKN027 OVC035 23/22 A3001 RMK AO2 LTG DSNT ALQS T02300216
KMKN 241055Z AUTO 13012G20KT 10SM SCT009 OVC026 23/22 A3000 RMK AO2 LTG DSNT N THRU SE T02300221
KMKN 241035Z AUTO 12013G19KT 10SM BKN024 BKN029 23/22 A2999 RMK AO2 LTG DSNT N THRU SE T02300215
KMKN 241015Z AUTO 11012G19KT 10SM SCT024 SCT065 BKN085 23/21 A2998 RMK AO2 LTG DSNT NW THRU E T02310206
KMKN 240955Z AUTO 09014G19KT 10SM SCT024 BKN070 OVC110 24/20 A2996 RMK AO2 LTG DSNT NE AND E T02390201
KMKN 240935Z AUTO 08008KT 10SM BKN070 27/22 A2995 RMK AO2 LTG DSNT E T02660220
KMKN 240915Z AUTO 14008KT 10SM CLR 26/22 A2992 RMK AO2 LTG DSNT N THRU E T02640221
KMKN 240855Z AUTO 14007KT 10SM CLR 26/22 A2992 RMK AO2 LTG DSNT N THRU E T02610222
KMKN 240835Z AUTO 14006KT 10SM CLR 26/23 A2991 RMK AO2 LTG DSNT NE T02620225
KMKN 240815Z AUTO 13007KT 10SM CLR 27/23 A2992 RMK AO2 LTG DSNT NE T02660225
KMKN 240755Z AUTO 12008KT 10SM CLR 27/23 A2993 RMK AO2 LTG DSNT E T02670226
KMKN 240735Z AUTO 12006KT 10SM CLR 27/23 A2992 RMK AO2 T02660227
KMKN 240715Z AUTO 12005KT 10SM CLR 27/23 A2994 RMK AO2 T02670227
KMKN 240655Z AUTO 15005KT 10SM CLR 27/23 A2995 RMK AO2 T02700226
KMKN 240635Z AUTO 15004KT 10SM CLR 27/23 A2995 RMK AO2 T02700226
KMKN 240615Z AUTO 15005KT 10SM CLR 27/23 A2995 RMK AO2 T02710226
KMKN 240555Z AUTO 14003KT 10SM CLR 27/23 A2995 RMK AO2 T02740226 10355 20272 403900206
KMKN 240535Z AUTO 14004KT 10SM CLR 28/23 A2995 RMK AO2 T02750225
KMKN 240515Z AUTO 12004KT 10SM CLR 28/23 A2994 RMK AO2 T02770225
KMKN 240455Z AUTO 12004KT 10SM CLR 28/23 A2994 RMK AO2 T02820225
KMKN 240435Z AUTO 11005KT 10SM CLR 29/23 A2993 RMK AO2 LTG DSNT W T02850225
KMKN 240415Z AUTO 10005KT 10SM CLR 29/23 A2993 RMK AO2 LTG DSNT SW T02870225
KMKN 240355Z AUTO 09004KT 10SM CLR 29/23 A2992 RMK AO2 T02860225
KMKN 240335Z AUTO 09004KT 10SM CLR 29/22 A2990 RMK AO2 T02900222
KMKN 240315Z AUTO 08005KT 10SM CLR 29/22 A2989 RMK AO2 T02920216
KMKN 240255Z AUTO 09005KT 10SM CLR 30/21 A2988 RMK AO2 T02970213
KMKN 240235Z AUTO 09004KT 10SM CLR 31/21 A2987 RMK AO2 T03060210
KMKN 240215Z AUTO 10006KT 10SM CLR 31/21 A2985 RMK AO2 T03100207
KMKN 240155Z AUTO 09005KT 10SM CLR 32/21 A2984 RMK AO2 LTG DSNT W T03150205
KMKN 240135Z AUTO 09006KT 10SM CLR 32/21 A2983 RMK AO2 T03210205
KMKN 240115Z AUTO 10005KT 10SM CLR 33/21 A2983 RMK AO2 LTG DSNT W T03260205
KMKN 240055Z AUTO 09006KT 10SM CLR 34/20 A2983 RMK AO2 T03360200
KMKN 240035Z AUTO 09007KT 10SM CLR 34/20 A2983 RMK AO2 T03430200
KMKN 240015Z AUTO 09005KT 10SM CLR 35/20 A2982 RMK AO2 LTG DSNT W T03510195
KMKN 232355Z AUTO 11007KT 10SM CLR 36/19 A2981 RMK AO2 T03560191 10390 20352
KMKN 232335Z AUTO 09010G15KT 10SM CLR 37/20 A2980 RMK AO2 T03680197
KMKN 232315Z AUTO 10010G14KT 10SM CLR 38/20 A2980 RMK AO2 T03750197
KMKN 232255Z AUTO 08005KT 10SM CLR 38/19 A2980 RMK AO2 T03800192
KMKN 232235Z AUTO 08007KT 10SM CLR 38/20 A2980 RMK AO2 T03820196
KMKN 232215Z AUTO 03007KT 10SM CLR 38/20 A2981 RMK AO2 T03810202
KMKN 232155Z AUTO 07010KT 10SM CLR 39/19 A2981 RMK AO2 T03860194
KMKN 232135Z AUTO 10004KT 10SM CLR 38/19 A2982 RMK AO2 T03810191
KMKN 232115Z AUTO 06006KT 10SM CLR 39/19 A2982 RMK AO2 T03850186
KMKN 232055Z AUTO 04003KT 10SM CLR 38/18 A2982 RMK AO2 T03800183
KMKN 232035Z AUTO 03007KT 10SM CLR 38/18 A2982 RMK AO2 T03800184
KMKN 232015Z AUTO 06008KT 10SM CLR 38/20 A2983 RMK AO2 T03810197
KMKN 231955Z AUTO 08003KT 10SM CLR 38/18 A2982 RMK AO2 T03820181
KMKN 231935Z AUTO 00000KT 10SM CLR 38/19 A2982 RMK AO2 T03770190
KMKN 231915Z AUTO 03006KT 10SM CLR 38/19 A2983 RMK AO2 T03770193
KMKN 231855Z AUTO 00000KT 10SM CLR 38/20 A2983 RMK AO2 T03760202
KMKN 231835Z AUTO 20004KT 10SM CLR 36/19 A2983 RMK AO2 T03630193
KMKN 231815Z AUTO 18003KT 10SM CLR 36/21 A2983 RMK AO2 T03600206
KMKN 231755Z AUTO 00000KT 10SM CLR 36/20 A2983 RMK AO2 T03580201 10360 20206
KMKN 231735Z AUTO 20003KT 10SM CLR 35/21 A2982 RMK AO2 T03480214
KMKN 231715Z AUTO 18004KT 10SM CLR 34/21 A2983 RMK AO2 T03400212
KMKN 231655Z AUTO 16003KT 10SM CLR 34/21 A2983 RMK AO2 T03360209
KMKN 231635Z AUTO 17005KT 10SM CLR 33/21 A2983 RMK AO2 T03340211
KMKN 231615Z AUTO 19006KT 10SM CLR 33/21 A2983 RMK AO2 T03260214
KMKN 231555Z AUTO 00000KT 10SM CLR 32/21 A2984 RMK AO2 T03170211
KMKN 231535Z AUTO 23006KT 10SM CLR 31/22 A2984 RMK AO2 T03110215
KMKN 231515Z AUTO 00000KT 10SM CLR 29/23 A2983 RMK AO2 T02910230
KMKN 231455Z AUTO 00000KT 10SM CLR 28/23 A2983 RMK AO2 T02790230
KMKN 231435Z AUTO 00000KT 10SM CLR 27/23 A2982 RMK AO2 T02690230
KMKN 231415Z AUTO 00000KT 10SM CLR 26/23 A2982 RMK AO2 T02590231
KMKN 231355Z AUTO 00000KT 10SM CLR 25/23 A2982 RMK AO2 T02500231
KMKN 231335Z AUTO 00000KT 10SM CLR 24/24 A2981 RMK AO2 T02350235
KMKN 231315Z AUTO 00000KT 10SM CLR 23/23 A2980 RMK AO2 T02260226
KMKN 231255Z AUTO 00000KT 10SM CLR 22/22 A2979 RMK AO2 T02170217
KMKN 231235Z AUTO 00000KT 10SM CLR 21/21 A2978 RMK AO2 T02140214
KMKN 231215Z AUTO 00000KT 10SM CLR 21/21 A2977 RMK AO2 T02120212
KMKN 231155Z AUTO 00000KT 10SM CLR 21/21 A2977 RMK AO2 T02060206 10236 20206
KMKN 231135Z AUTO 00000KT 10SM CLR 21/21 A2975 RMK AO2 LTG DSNT NW T02100210
KMKN 231115Z AUTO 12003KT 10SM CLR 21/21 A2974 RMK AO2 LTG DSNT N T02110211
KMKN 231055Z AUTO 14005KT 10SM CLR 21/21 A2973 RMK AO2 T02090209
KMKN 231035Z AUTO 00000KT 10SM CLR 21/21 A2974 RMK AO2 T02080208
KMKN 231015Z AUTO 13004KT 10SM CLR 21/21 A2972 RMK AO2 T02110211
KMKN 230955Z AUTO 15005KT 10SM CLR 21/21 A2973 RMK AO2 T02110211
KMKN 230935Z AUTO 15004KT 10SM CLR 21/21 A2974 RMK AO2 T02130213
KMKN 230915Z AUTO 14004KT 10SM CLR 22/22 A2974 RMK AO2 T02150215
KMKN 230855Z AUTO 15003KT 10SM CLR 21/21 A2974 RMK AO2 T02130213


Page loaded:  20:54 UTC  |   01:54 PM Pacific  |   02:54 PM Mountain  |   03:54 PM Central  |   04:54 PM Eastern

 

ADVISORIES

FORECASTS

FORECASTS

OBSERVATIONS

USER TOOLS

ABOUT US